Airfield :
LOGIN :

Register | Disclaimer

   EN    FR    IT 

 










Legend :    VFR   Marginal VFR   IFR   Intensive IFR   Very Intensive IFR
Visi :
Ceiling :
>= 8 km
>= 3000ft
5 to 8 km
1000 to 3000 ft
1500m to 5 km
500 to 1000 ft
800 to 1500m
200 to 500 ft
< 800m
< 200 ft
Symbols :   Thunderstorms  Fog  Heavy snow  Heavy precipitations  Wind > 20 kt
SIGMETs :     Misc.  Thunderstorms  Icing  Turbulence  Mountain Waves  Volcanic Ashes






- Airport Elevation : 230 ft
- IATA code : TBJ


DTKA - Tabarka 7 Novembre

CURRENT METAR :
  • 270600Z 08005KT 9999 FEW023 17/09 Q1023 NOSIG

EXPIRED METARs :
  • 270500Z 07006KT 9999 FEW023 14/09 Q1023 NOSIG
  • 270400Z 07008KT 9999 FEW023 12/10 Q1023 NOSIG

TAF TAF DTKA
Valid from the 27 at 04:00 until the 27 at 13:00 UTC


270300Z 2704/2713 07010KT 9999 FEW023



MET'MAP, your aeronautical weather chart ! - Copyright ORBIFLY December 2007 - Disclaimer

ORBIFLY MET'MAP TEAM :

Programming & Development : Alexandra Zaïnal
Concept & original design : Baudouin d'Aumeries
Assistance for programming : Marc-Olivier Méhu
Technical & hardware support : Manuel Goepfert

Contact : metmap@orbifly.com




SOURCES & CREDITS :

   NOAA